sensor_id;sensor_type;location;lat;lon;timestamp;pressure;altitude;pressure_sealevel;temperature;humidity
8585;BME280;7180;52.742;11.420;2022-08-25T04:46:36;101538.72;;;16.11;100.00
8585;BME280;7180;52.742;11.420;2022-08-25T04:49:02;101536.84;;;16.26;100.00
8585;BME280;7180;52.742;11.420;2022-08-25T04:51:33;101533.13;;;16.28;100.00
8585;BME280;7180;52.742;11.420;2022-08-25T04:54:03;101540.34;;;16.53;100.00
8585;BME280;7180;52.742;11.420;2022-08-25T04:56:30;101532.38;;;16.53;100.00
8585;BME280;7180;52.742;11.420;2022-08-25T04:59:08;101529.09;;;16.62;100.00
8585;BME280;7180;52.742;11.420;2022-08-25T05:01:34;101526.84;;;16.56;100.00
8585;BME280;7180;52.742;11.420;2022-08-25T05:04:02;101534.28;;;16.64;100.00
8585;BME280;7180;52.742;11.420;2022-08-25T05:06:29;101540.13;;;16.81;100.00
8585;BME280;7180;52.742;11.420;2022-08-25T05:08:55;101542.88;;;16.92;100.00
8585;BME280;7180;52.742;11.420;2022-08-25T05:11:21;101540.47;;;16.89;100.00
8585;BME280;7180;52.742;11.420;2022-08-25T05:13:49;101546.50;;;17.16;100.00
8585;BME280;7180;52.742;11.420;2022-08-25T05:16:15;101541.06;;;17.18;100.00
8585;BME280;7180;52.742;11.420;2022-08-25T05:18:41;101535.13;;;17.14;100.00
8585;BME280;7180;52.742;11.420;2022-08-25T05:21:13;101535.13;;;17.14;100.00
8585;BME280;7180;52.742;11.420;2022-08-25T05:23:39;101537.22;;;17.34;100.00
8585;BME280;7180;52.742;11.420;2022-08-25T05:26:07;101551.13;;;17.50;100.00
8585;BME280;7180;52.742;11.420;2022-08-25T05:28:35;101544.06;;;17.62;100.00
8585;BME280;7180;52.742;11.420;2022-08-25T05:31:02;101543.81;;;17.78;100.00
8585;BME280;7180;52.742;11.420;2022-08-25T05:33:28;101533.97;;;17.91;100.00
8585;BME280;7180;52.742;11.420;2022-08-25T05:35:53;101541.94;;;17.91;100.00
8585;BME280;7180;52.742;11.420;2022-08-25T05:38:20;101542.22;;;17.99;100.00
8585;BME280;7180;52.742;11.420;2022-08-25T05:40:45;101538.81;;;17.97;100.00
8585;BME280;7180;52.742;11.420;2022-08-25T05:43:11;101542.22;;;17.99;100.00
8585;BME280;7180;52.742;11.420;2022-08-25T05:45:38;101553.38;;;18.04;100.00
8585;BME280;7180;52.742;11.420;2022-08-25T05:48:04;101551.56;;;18.04;100.00
8585;BME280;7180;52.742;11.420;2022-08-25T05:50:30;101555.19;;;18.27;100.00
8585;BME280;7180;52.742;11.420;2022-08-25T05:52:55;101547.53;;;18.22;100.00
8585;BME280;7180;52.742;11.420;2022-08-25T05:55:20;101550.47;;;18.30;100.00
8585;BME280;7180;52.742;11.420;2022-08-25T05:57:46;101563.84;;;18.18;100.00
8585;BME280;7180;52.742;11.420;2022-08-25T06:00:12;101558.97;;;18.12;100.00
8585;BME280;7180;52.742;11.420;2022-08-25T06:02:38;101570.88;;;18.19;100.00
8585;BME280;7180;52.742;11.420;2022-08-25T06:05:19;101575.06;;;18.34;100.00
8585;BME280;7180;52.742;11.420;2022-08-25T06:07:46;101565.66;;;18.41;100.00
8585;BME280;7180;52.742;11.420;2022-08-25T06:10:13;101567.88;;;18.34;100.00
8585;BME280;7180;52.742;11.420;2022-08-25T06:12:40;101565.13;;;18.36;100.00
8585;BME280;7180;52.742;11.420;2022-08-25T06:15:09;101573.69;;;18.52;100.00
8585;BME280;7180;52.742;11.420;2022-08-25T06:17:35;101561.34;;;18.62;100.00
8585;BME280;7180;52.742;11.420;2022-08-25T06:20:05;101559.75;;;18.59;100.00
8585;BME280;7180;52.742;11.420;2022-08-25T06:22:31;101561.38;;;18.73;100.00
8585;BME280;7180;52.742;11.420;2022-08-25T06:24:56;101549.03;;;18.61;100.00
8585;BME280;7180;52.742;11.420;2022-08-25T06:27:21;101546.31;;;18.50;100.00
8585;BME280;7180;52.742;11.420;2022-08-25T06:29:47;101549.34;;;18.56;100.00
8585;BME280;7180;52.742;11.420;2022-08-25T06:32:12;101557.72;;;18.63;100.00
8585;BME280;7180;52.742;11.420;2022-08-25T06:34:37;101562.16;;;18.86;100.00
8585;BME280;7180;52.742;11.420;2022-08-25T06:37:03;101551.94;;;18.69;100.00
8585;BME280;7180;52.742;11.420;2022-08-25T06:39:28;101556.31;;;18.92;100.00
8585;BME280;7180;52.742;11.420;2022-08-25T06:41:54;101550.03;;;18.93;100.00
8585;BME280;7180;52.742;11.420;2022-08-25T06:44:20;101549.41;;;18.79;100.00
8585;BME280;7180;52.742;11.420;2022-08-25T06:46:46;101559.38;;;18.99;100.00
8585;BME280;7180;52.742;11.420;2022-08-25T06:49:11;101547.84;;;18.98;100.00
8585;BME280;7180;52.742;11.420;2022-08-25T06:51:37;101550.66;;;19.08;100.00
8585;BME280;7180;52.742;11.420;2022-08-25T06:54:04;101556.84;;;18.97;100.00
8585;BME280;7180;52.742;11.420;2022-08-25T06:56:29;101557.06;;;19.05;100.00
8585;BME280;7180;52.742;11.420;2022-08-25T06:58:54;101560.00;;;19.13;100.00
8585;BME280;7180;52.742;11.420;2022-08-25T07:01:23;101561.69;;;19.25;100.00
8585;BME280;7180;52.742;11.420;2022-08-25T07:03:51;101556.09;;;19.28;100.00
8585;BME280;7180;52.742;11.420;2022-08-25T07:06:17;101559.50;;;19.63;100.00
8585;BME280;7180;52.742;11.420;2022-08-25T07:08:43;101551.97;;;19.69;100.00
8585;BME280;7180;52.742;11.420;2022-08-25T07:11:10;101561.19;;;19.53;100.00
8585;BME280;7180;52.742;11.420;2022-08-25T07:13:36;101563.38;;;19.15;100.00
8585;BME280;7180;52.742;11.420;2022-08-25T07:16:03;101568.09;;;19.23;100.00
8585;BME280;7180;52.742;11.420;2022-08-25T07:18:29;101572.38;;;19.36;100.00
8585;BME280;7180;52.742;11.420;2022-08-25T07:20:55;101573.31;;;19.24;100.00
8585;BME280;7180;52.742;11.420;2022-08-25T07:23:22;101572.84;;;19.41;100.00
8585;BME280;7180;52.742;11.420;2022-08-25T07:25:48;101586.19;;;19.63;100.00
8585;BME280;7180;52.742;11.420;2022-08-25T07:28:14;101574.75;;;19.73;100.00
8585;BME280;7180;52.742;11.420;2022-08-25T07:30:40;101575.47;;;19.86;100.00
8585;BME280;7180;52.742;11.420;2022-08-25T07:33:05;101571.03;;;20.18;100.00
8585;BME280;7180;52.742;11.420;2022-08-25T07:35:31;101565.06;;;20.14;100.00
8585;BME280;7180;52.742;11.420;2022-08-25T07:37:57;101560.06;;;20.21;100.00
8585;BME280;7180;52.742;11.420;2022-08-25T07:40:26;101564.31;;;20.23;100.00
8585;BME280;7180;52.742;11.420;2022-08-25T07:42:55;101560.81;;;20.23;100.00
8585;BME280;7180;52.742;11.420;2022-08-25T07:45:23;101554.47;;;20.24;100.00
8585;BME280;7180;52.742;11.420;2022-08-25T07:47:54;101551.25;;;20.41;100.00
8585;BME280;7180;52.742;11.420;2022-08-25T07:50:20;101542.44;;;20.29;100.00
8585;BME280;7180;52.742;11.420;2022-08-25T07:52:46;101553.34;;;20.58;100.00
8585;BME280;7180;52.742;11.420;2022-08-25T07:55:12;101549.34;;;20.32;100.00
8585;BME280;7180;52.742;11.420;2022-08-25T07:57:40;101561.97;;;20.30;100.00
8585;BME280;7180;52.742;11.420;2022-08-25T08:00:07;101559.91;;;20.33;100.00
8585;BME280;7180;52.742;11.420;2022-08-25T08:02:33;101565.81;;;20.37;100.00
8585;BME280;7180;52.742;11.420;2022-08-25T08:04:59;101560.09;;;20.62;100.00
8585;BME280;7180;52.742;11.420;2022-08-25T08:07:25;101561.16;;;20.71;100.00
8585;BME280;7180;52.742;11.420;2022-08-25T08:09:51;101560.50;;;20.57;100.00
8585;BME280;7180;52.742;11.420;2022-08-25T08:12:17;101557.28;;;20.63;100.00
8585;BME280;7180;52.742;11.420;2022-08-25T08:14:43;101566.69;;;20.79;100.00
8585;BME280;7180;52.742;11.420;2022-08-25T08:17:09;101560.19;;;20.72;100.00
8585;BME280;7180;52.742;11.420;2022-08-25T08:19:35;101560.97;;;20.83;100.00
8585;BME280;7180;52.742;11.420;2022-08-25T08:22:03;101548.00;;;20.99;100.00
8585;BME280;7180;52.742;11.420;2022-08-25T08:24:29;101539.66;;;20.72;100.00
8585;BME280;7180;52.742;11.420;2022-08-25T08:26:55;101554.75;;;21.03;100.00
8585;BME280;7180;52.742;11.420;2022-08-25T08:29:20;101560.47;;;20.99;100.00
8585;BME280;7180;52.742;11.420;2022-08-25T08:31:46;101545.38;;;20.88;100.00
8585;BME280;7180;52.742;11.420;2022-08-25T08:34:12;101556.56;;;20.82;100.00
8585;BME280;7180;52.742;11.420;2022-08-25T08:36:37;101563.84;;;21.21;100.00
8585;BME280;7180;52.742;11.420;2022-08-25T08:39:02;101551.13;;;21.44;100.00
8585;BME280;7180;52.742;11.420;2022-08-25T08:55:14;101553.38;;;21.88;100.00
8585;BME280;7180;52.742;11.420;2022-08-25T08:57:46;101548.00;;;21.88;100.00
8585;BME280;7180;52.742;11.420;2022-08-25T09:00:12;101545.06;;;22.10;100.00
8585;BME280;7180;52.742;11.420;2022-08-25T09:02:42;101534.75;;;22.53;98.47
8585;BME280;7180;52.742;11.420;2022-08-25T09:05:13;101535.06;;;22.12;99.71
8585;BME280;7180;52.742;11.420;2022-08-25T09:07:44;101537.59;;;21.95;100.00
8585;BME280;7180;52.742;11.420;2022-08-25T09:10:13;101540.41;;;22.03;100.00
8585;BME280;7180;52.742;11.420;2022-08-25T09:12:45;101535.63;;;21.87;100.00
8585;BME280;7180;52.742;11.420;2022-08-25T09:15:38;101538.72;;;22.59;98.65
8585;BME280;7180;52.742;11.420;2022-08-25T09:18:37;101530.81;;;22.48;97.95
8585;BME280;7180;52.742;11.420;2022-08-25T09:21:28;101534.06;;;22.71;97.11
8585;BME280;7180;52.742;11.420;2022-08-25T09:24:07;101527.41;;;22.75;96.34
8585;BME280;7180;52.742;11.420;2022-08-25T09:26:51;101515.78;;;22.93;95.21
8585;BME280;7180;52.742;11.420;2022-08-25T09:29:23;101525.94;;;23.26;94.26
8585;BME280;7180;52.742;11.420;2022-08-25T09:31:52;101530.63;;;23.34;93.75
8585;BME280;7180;52.742;11.420;2022-08-25T09:34:23;101522.59;;;23.51;91.88
8585;BME280;7180;52.742;11.420;2022-08-25T09:36:52;101508.78;;;23.46;90.71
8585;BME280;7180;52.742;11.420;2022-08-25T09:39:18;101501.72;;;22.72;94.54
8585;BME280;7180;52.742;11.420;2022-08-25T09:41:48;101517.16;;;23.07;95.02
8585;BME280;7180;52.742;11.420;2022-08-25T09:44:26;101496.03;;;22.94;95.23
8585;BME280;7180;52.742;11.420;2022-08-25T09:49:37;101509.50;;;23.84;91.69
8585;BME280;7180;52.742;11.420;2022-08-25T09:52:29;101486.38;;;24.00;89.98
8585;BME280;7180;52.742;11.420;2022-08-25T09:54:59;101479.28;;;23.64;90.93
8585;BME280;7180;52.742;11.420;2022-08-25T09:57:35;101496.34;;;24.08;90.80
8585;BME280;7180;52.742;11.420;2022-08-25T10:00:13;101482.97;;;24.33;88.29
8585;BME280;7180;52.742;11.420;2022-08-25T10:02:41;101459.84;;;24.23;86.66
8585;BME280;7180;52.742;11.420;2022-08-25T10:05:23;101471.16;;;23.91;89.61
8585;BME280;7180;52.742;11.420;2022-08-25T10:07:56;101474.91;;;23.81;90.22
8585;BME280;7180;52.742;11.420;2022-08-25T10:10:34;101477.00;;;24.04;88.69
8585;BME280;7180;52.742;11.420;2022-08-25T10:13:12;101495.94;;;24.63;87.65
8585;BME280;7180;52.742;11.420;2022-08-25T10:15:38;101442.38;;;24.01;86.62
8585;BME280;7180;52.742;11.420;2022-08-25T10:18:25;101452.78;;;23.87;88.76
8585;BME280;7180;52.742;11.420;2022-08-25T10:21:01;101466.84;;;23.98;89.91
8585;BME280;7180;52.742;11.420;2022-08-25T10:23:27;101465.50;;;24.12;89.51
8585;BME280;7180;52.742;11.420;2022-08-25T10:25:53;101469.56;;;24.67;87.42
8585;BME280;7180;52.742;11.420;2022-08-25T10:28:29;101447.19;;;24.58;86.29
8585;BME280;7180;52.742;11.420;2022-08-25T10:31:03;101439.81;;;24.68;86.54
8585;BME280;7180;52.742;11.420;2022-08-25T10:33:48;101456.72;;;25.20;84.55
8585;BME280;7180;52.742;11.420;2022-08-25T10:37:08;101433.91;;;25.32;83.84
8585;BME280;7180;52.742;11.420;2022-08-25T10:42:18;101420.13;;;24.86;85.13
8585;BME280;7180;52.742;11.420;2022-08-25T10:50:32;101411.47;;;24.48;86.07
8585;BME280;7180;52.742;11.420;2022-08-25T10:53:14;101409.69;;;24.06;88.02
8585;BME280;7180;52.742;11.420;2022-08-25T10:58:30;101405.84;;;23.91;88.21
8585;BME280;7180;52.742;11.420;2022-08-25T11:01:20;101413.44;;;23.95;89.06
8585;BME280;7180;52.742;11.420;2022-08-25T11:03:55;101425.66;;;24.33;88.95
8585;BME280;7180;52.742;11.420;2022-08-25T11:06:46;101421.59;;;24.54;87.86
8585;BME280;7180;52.742;11.420;2022-08-25T11:09:17;101412.53;;;24.55;86.69
8585;BME280;7180;52.742;11.420;2022-08-25T11:14:32;101389.91;;;24.66;86.12
8585;BME280;7180;52.742;11.420;2022-08-25T11:17:05;101390.22;;;24.63;86.43
8585;BME280;7180;52.742;11.420;2022-08-25T11:19:37;101385.75;;;24.72;86.22
8585;BME280;7180;52.742;11.420;2022-08-25T11:22:25;101372.69;;;24.51;86.46
8585;BME280;7180;52.742;11.420;2022-08-25T11:25:11;101372.91;;;24.32;87.68
8585;BME280;7180;52.742;11.420;2022-08-25T11:27:46;101388.41;;;24.38;87.88
8585;BME280;7180;52.742;11.420;2022-08-25T11:30:15;101369.56;;;24.30;88.21
8585;BME280;7180;52.742;11.420;2022-08-25T11:32:45;101368.97;;;24.52;86.08
8585;BME280;7180;52.742;11.420;2022-08-25T11:35:12;101376.06;;;24.53;87.16
8585;BME280;7180;52.742;11.420;2022-08-25T11:44:04;101348.50;;;24.51;85.87
8585;BME280;7180;52.742;11.420;2022-08-25T11:55:06;101338.56;;;24.93;83.63
8585;BME280;7180;52.742;11.420;2022-08-25T11:57:35;101332.47;;;24.75;84.23
8585;BME280;7180;52.742;11.420;2022-08-25T12:00:07;101364.03;;;25.07;84.91
8585;BME280;7180;52.742;11.420;2022-08-25T12:02:48;101332.28;;;25.18;82.40
8585;BME280;7180;52.742;11.420;2022-08-25T12:11:00;101311.78;;;25.49;80.05
8585;BME280;7180;52.742;11.420;2022-08-25T12:16:02;101301.34;;;25.87;78.85
8585;BME280;7180;52.742;11.420;2022-08-25T12:23:41;101296.59;;;25.97;78.13
8585;BME280;7180;52.742;11.420;2022-08-25T12:26:29;101283.09;;;26.13;76.52
8585;BME280;7180;52.742;11.420;2022-08-25T12:29:06;101262.00;;;26.24;75.48
8585;BME280;7180;52.742;11.420;2022-08-25T12:32:00;101257.16;;;26.12;75.79
8585;BME280;7180;52.742;11.420;2022-08-25T12:37:23;101243.91;;;26.41;75.04
8585;BME280;7180;52.742;11.420;2022-08-25T12:42:32;101247.81;;;26.69;73.63
8585;BME280;7180;52.742;11.420;2022-08-25T12:47:51;101209.81;;;27.24;70.24
8585;BME280;7180;52.742;11.420;2022-08-25T12:50:43;101222.78;;;27.66;70.28
8585;BME280;7180;52.742;11.420;2022-08-25T12:53:27;101205.69;;;27.28;71.38
8585;BME280;7180;52.742;11.420;2022-08-25T12:56:24;101198.41;;;27.14;71.21
8585;BME280;7180;52.742;11.420;2022-08-25T12:59:09;101197.69;;;26.97;72.19
8585;BME280;7180;52.742;11.420;2022-08-25T13:04:56;101215.13;;;27.54;70.40
8585;BME280;7180;52.742;11.420;2022-08-25T13:07:40;101184.00;;;27.44;70.28
8585;BME280;7180;52.742;11.420;2022-08-25T13:10:19;101174.94;;;27.14;70.63
8585;BME280;7180;52.742;11.420;2022-08-25T13:15:57;101176.91;;;26.52;72.39
8585;BME280;7180;52.742;11.420;2022-08-25T13:18:26;101186.25;;;26.42;73.41
8585;BME280;7180;52.742;11.420;2022-08-25T13:21:16;101187.69;;;26.52;73.18
8585;BME280;7180;52.742;11.420;2022-08-25T13:23:45;101168.78;;;26.83;70.92
8585;BME280;7180;52.742;11.420;2022-08-25T13:26:24;101183.09;;;27.06;69.69
8585;BME280;7180;52.742;11.420;2022-08-25T13:28:56;101160.88;;;27.04;70.45
8585;BME280;7180;52.742;11.420;2022-08-25T13:31:22;101154.06;;;27.08;69.15
8585;BME280;7180;52.742;11.420;2022-08-25T13:33:57;101141.91;;;27.12;69.25
8585;BME280;7180;52.742;11.420;2022-08-25T13:36:25;101149.34;;;27.10;69.96
8585;BME280;7180;52.742;11.420;2022-08-25T13:39:21;101155.94;;;27.30;68.59
8585;BME280;7180;52.742;11.420;2022-08-25T13:41:51;101145.81;;;27.24;68.93
8585;BME280;7180;52.742;11.420;2022-08-25T13:44:18;101148.56;;;27.39;69.32
8585;BME280;7180;52.742;11.420;2022-08-25T13:46:45;101148.94;;;27.36;69.49
8585;BME280;7180;52.742;11.420;2022-08-25T13:49:12;101139.94;;;27.43;68.33
8585;BME280;7180;52.742;11.420;2022-08-25T13:51:39;101103.63;;;27.31;67.42
8585;BME280;7180;52.742;11.420;2022-08-25T13:54:27;101117.84;;;27.40;68.12
8585;BME280;7180;52.742;11.420;2022-08-25T13:57:02;101088.97;;;27.26;67.48
8585;BME280;7180;52.742;11.420;2022-08-25T13:59:35;101108.69;;;27.26;68.58
8585;BME280;7180;52.742;11.420;2022-08-25T14:02:02;101098.91;;;27.25;67.58
8585;BME280;7180;52.742;11.420;2022-08-25T14:09:50;101084.56;;;27.10;68.48
8585;BME280;7180;52.742;11.420;2022-08-25T14:15:06;101085.22;;;27.12;68.52
8585;BME280;7180;52.742;11.420;2022-08-25T14:17:33;101054.50;;;26.99;67.77
8585;BME280;7180;52.742;11.420;2022-08-25T14:19:59;101051.22;;;27.03;67.53
8585;BME280;7180;52.742;11.420;2022-08-25T14:22:25;101057.94;;;27.07;67.64
8585;BME280;7180;52.742;11.420;2022-08-25T14:24:51;101057.66;;;27.02;67.52
8585;BME280;7180;52.742;11.420;2022-08-25T14:27:17;101062.50;;;27.07;67.24
8585;BME280;7180;52.742;11.420;2022-08-25T14:29:43;101051.22;;;27.03;67.48
8585;BME280;7180;52.742;11.420;2022-08-25T14:32:09;101047.13;;;27.07;66.94
8585;BME280;7180;52.742;11.420;2022-08-25T14:34:36;101039.88;;;27.08;66.32
8585;BME280;7180;52.742;11.420;2022-08-25T14:37:11;101050.69;;;27.22;66.96
8585;BME280;7180;52.742;11.420;2022-08-25T14:39:36;101043.59;;;27.21;67.54
8585;BME280;7180;52.742;11.420;2022-08-25T14:42:02;101054.25;;;27.37;67.39
8585;BME280;7180;52.742;11.420;2022-08-25T14:44:27;101061.81;;;27.42;67.55
8585;BME280;7180;52.742;11.420;2022-08-25T14:46:54;101029.63;;;27.18;67.95
8585;BME280;7180;52.742;11.420;2022-08-25T14:49:27;101030.50;;;27.18;67.62
8585;BME280;7180;52.742;11.420;2022-08-25T14:51:55;101029.38;;;27.13;67.70
8585;BME280;7180;52.742;11.420;2022-08-25T14:54:24;101037.66;;;27.26;68.16
8585;BME280;7180;52.742;11.420;2022-08-25T14:56:51;101002.44;;;27.19;66.46
8585;BME280;7180;52.742;11.420;2022-08-25T14:59:16;101003.56;;;27.10;67.13
8585;BME280;7180;52.742;11.420;2022-08-25T15:01:42;100987.03;;;27.13;66.40
8585;BME280;7180;52.742;11.420;2022-08-25T15:04:16;100972.41;;;27.08;66.07
8585;BME280;7180;52.742;11.420;2022-08-25T15:06:43;100991.97;;;27.10;66.81
8585;BME280;7180;52.742;11.420;2022-08-25T15:09:11;100995.59;;;27.17;67.25
8585;BME280;7180;52.742;11.420;2022-08-25T15:11:46;101007.13;;;27.25;67.57
8585;BME280;7180;52.742;11.420;2022-08-25T15:14:14;100991.19;;;27.16;68.05
8585;BME280;7180;52.742;11.420;2022-08-25T15:16:43;101001.78;;;27.17;68.38
8585;BME280;7180;52.742;11.420;2022-08-25T15:19:11;100985.31;;;27.12;68.00
8585;BME280;7180;52.742;11.420;2022-08-25T15:21:39;100978.53;;;27.02;67.96
8585;BME280;7180;52.742;11.420;2022-08-25T15:24:05;100980.66;;;27.06;67.32
8585;BME280;7180;52.742;11.420;2022-08-25T15:26:34;100968.88;;;27.07;66.59
8585;BME280;7180;52.742;11.420;2022-08-25T15:29:03;100978.47;;;27.10;66.81
8585;BME280;7180;52.742;11.420;2022-08-25T15:31:30;100969.13;;;27.12;66.50
8585;BME280;7180;52.742;11.420;2022-08-25T15:33:55;100959.84;;;27.00;66.53
8585;BME280;7180;52.742;11.420;2022-08-25T15:36:23;100962.81;;;27.05;67.18
8585;BME280;7180;52.742;11.420;2022-08-25T15:38:48;100972.50;;;27.00;67.22
8585;BME280;7180;52.742;11.420;2022-08-25T15:41:14;100993.34;;;27.20;67.06
8585;BME280;7180;52.742;11.420;2022-08-25T15:43:39;100976.22;;;27.13;66.99
8585;BME280;7180;52.742;11.420;2022-08-25T15:46:08;100966.81;;;27.09;67.33
8585;BME280;7180;52.742;11.420;2022-08-25T15:48:33;100968.94;;;26.99;68.07
8585;BME280;7180;52.742;11.420;2022-08-25T15:51:00;100971.47;;;26.86;68.45
8585;BME280;7180;52.742;11.420;2022-08-25T15:53:26;100970.72;;;26.92;68.74
8585;BME280;7180;52.742;11.420;2022-08-25T15:55:53;100979.28;;;26.96;68.64
8585;BME280;7180;52.742;11.420;2022-08-25T15:58:19;100978.47;;;26.95;68.63
8585;BME280;7180;52.742;11.420;2022-08-25T16:00:45;100972.41;;;26.93;68.33
8585;BME280;7180;52.742;11.420;2022-08-25T16:03:11;100974.44;;;26.91;67.99
8585;BME280;7180;52.742;11.420;2022-08-25T16:05:38;100972.94;;;26.89;68.76
8585;BME280;7180;52.742;11.420;2022-08-25T16:08:05;100962.06;;;26.82;68.61
8585;BME280;7180;52.742;11.420;2022-08-25T16:10:39;100946.38;;;26.63;68.54
8585;BME280;7180;52.742;11.420;2022-08-25T16:13:05;100938.38;;;26.55;68.87
8585;BME280;7180;52.742;11.420;2022-08-25T16:15:31;100948.97;;;26.42;69.62
8585;BME280;7180;52.742;11.420;2022-08-25T16:17:58;100963.09;;;26.44;69.76
8585;BME280;7180;52.742;11.420;2022-08-25T16:20:25;100960.47;;;26.36;70.06
8585;BME280;7180;52.742;11.420;2022-08-25T16:22:50;100981.59;;;26.47;70.03
8585;BME280;7180;52.742;11.420;2022-08-25T16:25:15;100973.44;;;26.55;69.42
8585;BME280;7180;52.742;11.420;2022-08-25T16:27:41;100968.34;;;26.60;69.26
8585;BME280;7180;52.742;11.420;2022-08-25T16:30:08;100970.66;;;26.63;69.16
8585;BME280;7180;52.742;11.420;2022-08-25T16:32:34;100974.00;;;26.65;69.77
8585;BME280;7180;52.742;11.420;2022-08-25T16:34:59;100960.25;;;26.60;69.75
8585;BME280;7180;52.742;11.420;2022-08-25T16:37:25;100958.75;;;26.57;70.39
8585;BME280;7180;52.742;11.420;2022-08-25T16:39:52;100959.03;;;26.48;70.98
8585;BME280;7180;52.742;11.420;2022-08-25T16:42:17;100956.03;;;26.43;70.63
8585;BME280;7180;52.742;11.420;2022-08-25T16:44:42;100957.06;;;26.42;70.56
8585;BME280;7180;52.742;11.420;2022-08-25T16:47:09;100954.53;;;26.40;70.26
8585;BME280;7180;52.742;11.420;2022-08-25T16:49:34;100948.41;;;26.32;70.28
8585;BME280;7180;52.742;11.420;2022-08-25T16:52:00;100941.13;;;26.32;70.15
8585;BME280;7180;52.742;11.420;2022-08-25T16:54:27;100938.34;;;26.26;70.53
8585;BME280;7180;52.742;11.420;2022-08-25T16:57:11;100943.97;;;26.16;71.11
8585;BME280;7180;52.742;11.420;2022-08-25T16:59:36;100961.28;;;26.22;71.36
8585;BME280;7180;52.742;11.420;2022-08-25T17:02:02;100954.94;;;26.15;71.98
8585;BME280;7180;52.742;11.420;2022-08-25T17:04:27;100959.31;;;26.16;72.14
8585;BME280;7180;52.742;11.420;2022-08-25T17:06:52;100962.66;;;26.18;72.32
8585;BME280;7180;52.742;11.420;2022-08-25T17:09:18;100974.75;;;26.22;71.92
8585;BME280;7180;52.742;11.420;2022-08-25T17:11:46;100960.41;;;26.07;72.51
8585;BME280;7180;52.742;11.420;2022-08-25T17:14:14;100952.38;;;25.91;73.19
8585;BME280;7180;52.742;11.420;2022-08-25T17:16:39;100956.66;;;25.85;73.04
8585;BME280;7180;52.742;11.420;2022-08-25T17:19:06;100960.47;;;25.91;72.78
8585;BME280;7180;52.742;11.420;2022-08-25T17:21:35;100974.13;;;25.89;73.27
8585;BME280;7180;52.742;11.420;2022-08-25T17:24:02;100957.47;;;25.86;72.87
8585;BME280;7180;52.742;11.420;2022-08-25T17:26:28;100966.34;;;25.72;73.52
8585;BME280;7180;52.742;11.420;2022-08-25T17:28:54;100956.63;;;25.62;74.22
8585;BME280;7180;52.742;11.420;2022-08-25T17:31:20;100962.78;;;25.48;74.39
8585;BME280;7180;52.742;11.420;2022-08-25T17:33:45;100967.84;;;25.43;74.46
8585;BME280;7180;52.742;11.420;2022-08-25T17:36:11;100972.56;;;25.33;74.87
8585;BME280;7180;52.742;11.420;2022-08-25T17:38:36;100990.41;;;25.34;75.39
8585;BME280;7180;52.742;11.420;2022-08-25T17:41:04;100982.00;;;25.29;75.19
8585;BME280;7180;52.742;11.420;2022-08-25T17:43:33;100989.06;;;25.30;75.27
8585;BME280;7180;52.742;11.420;2022-08-25T17:45:59;100991.75;;;25.38;75.24
8585;BME280;7180;52.742;11.420;2022-08-25T17:48:26;100995.63;;;25.28;75.49
8585;BME280;7180;52.742;11.420;2022-08-25T17:50:53;100991.28;;;25.19;76.14
8585;BME280;7180;52.742;11.420;2022-08-25T17:53:19;100988.16;;;25.07;76.65
8585;BME280;7180;52.742;11.420;2022-08-25T17:55:45;100990.00;;;24.99;76.70
8585;BME280;7180;52.742;11.420;2022-08-25T17:58:12;101000.50;;;24.86;77.58
8585;BME280;7180;52.742;11.420;2022-08-25T18:00:39;101008.22;;;24.81;77.49
8585;BME280;7180;52.742;11.420;2022-08-25T18:03:05;101002.69;;;24.66;77.90
8585;BME280;7180;52.742;11.420;2022-08-25T18:05:32;101020.81;;;24.56;78.70
8585;BME280;7180;52.742;11.420;2022-08-25T18:07:57;101024.69;;;24.45;79.23
8585;BME280;7180;52.742;11.420;2022-08-25T18:10:23;101020.16;;;24.30;79.76
8585;BME280;7180;52.742;11.420;2022-08-25T18:12:49;101022.50;;;24.25;79.93
8585;BME280;7180;52.742;11.420;2022-08-25T18:15:14;101028.22;;;24.22;80.12
8585;BME280;7180;52.742;11.420;2022-08-25T18:17:40;101032.91;;;24.12;80.49
8585;BME280;7180;52.742;11.420;2022-08-25T18:20:08;101038.09;;;24.05;81.13
8585;BME280;7180;52.742;11.420;2022-08-25T18:22:34;101036.84;;;23.84;81.69
8585;BME280;7180;52.742;11.420;2022-08-25T18:25:02;101046.59;;;23.85;82.36
8585;BME280;7180;52.742;11.420;2022-08-25T18:27:29;101045.91;;;23.83;82.18
8585;BME280;7180;52.742;11.420;2022-08-25T18:29:54;101053.13;;;23.82;82.43
8585;BME280;7180;52.742;11.420;2022-08-25T18:32:20;101057.13;;;23.78;82.53
8585;BME280;7180;52.742;11.420;2022-08-25T18:34:45;101059.94;;;23.68;82.96
8585;BME280;7180;52.742;11.420;2022-08-25T18:37:10;101064.31;;;23.70;83.08
8585;BME280;7180;52.742;11.420;2022-08-25T18:39:54;101068.34;;;23.65;83.56
8585;BME280;7180;52.742;11.420;2022-08-25T18:42:38;101066.63;;;23.56;83.53
8585;BME280;7180;52.742;11.420;2022-08-25T18:45:05;101064.22;;;23.45;84.06
8585;BME280;7180;52.742;11.420;2022-08-25T18:47:31;101065.00;;;23.38;84.39
8585;BME280;7180;52.742;11.420;2022-08-25T18:49:56;101069.78;;;23.26;85.04
8585;BME280;7180;52.742;11.420;2022-08-25T18:52:21;101078.81;;;23.17;85.07
8585;BME280;7180;52.742;11.420;2022-08-25T18:54:47;101078.91;;;23.08;85.45
8585;BME280;7180;52.742;11.420;2022-08-25T18:57:12;101081.31;;;22.93;86.36
8585;BME280;7180;52.742;11.420;2022-08-25T18:59:37;101093.66;;;22.86;86.39
8585;BME280;7180;52.742;11.420;2022-08-25T19:02:03;101086.88;;;22.74;87.11
8585;BME280;7180;52.742;11.420;2022-08-25T19:04:28;101092.16;;;22.66;87.43
8585;BME280;7180;52.742;11.420;2022-08-25T19:06:55;101098.69;;;22.63;87.72
8585;BME280;7180;52.742;11.420;2022-08-25T19:09:20;101098.69;;;22.63;87.83
8585;BME280;7180;52.742;11.420;2022-08-25T19:11:46;101108.25;;;22.66;87.87
8585;BME280;7180;52.742;11.420;2022-08-25T19:14:11;101107.56;;;22.64;88.08
8585;BME280;7180;52.742;11.420;2022-08-25T19:16:41;101108.75;;;22.52;88.49